createdAt,value
2022-12-06T00:01:47.556Z,3.50
2022-12-06T00:04:51.878Z,3.50
2022-12-06T00:07:54.896Z,3.40
2022-12-06T00:11:05.726Z,3.70
2022-12-06T00:14:09.059Z,3.50
2022-12-06T00:17:11.998Z,3.60
2022-12-06T00:20:16.355Z,3.60
2022-12-06T00:23:19.279Z,3.50
2022-12-06T00:26:22.779Z,3.40
2022-12-06T00:29:25.685Z,3.40
2022-12-06T00:32:28.881Z,3.60
2022-12-06T00:35:33.205Z,3.60
2022-12-06T00:38:36.580Z,3.60
2022-12-06T00:41:39.770Z,3.70
2022-12-06T00:44:42.675Z,3.50
2022-12-06T00:47:45.621Z,3.50
2022-12-06T00:50:50.091Z,3.40
2022-12-06T00:53:53.710Z,3.50
2022-12-06T00:56:56.728Z,3.60
2022-12-06T01:00:00.030Z,3.60
2022-12-06T01:03:03.403Z,3.60
2022-12-06T01:06:09.638Z,3.30
2022-12-06T01:09:13.729Z,3.40
2022-12-06T01:12:16.638Z,3.50
2022-12-06T01:15:19.609Z,3.50
2022-12-06T01:18:23.449Z,3.60
2022-12-06T01:21:28.795Z,3.50
2022-12-06T01:24:31.871Z,3.40
2022-12-06T01:27:34.842Z,3.60
2022-12-06T01:30:40.981Z,3.60
2022-12-06T01:33:44.587Z,3.20
2022-12-06T01:36:50.921Z,3.40
2022-12-06T01:39:53.844Z,3.50
2022-12-06T01:42:56.752Z,3.40
2022-12-06T01:46:03.221Z,3.50
2022-12-06T01:49:18.556Z,3.50
2022-12-06T01:52:27.926Z,3.10
2022-12-06T01:55:34.883Z,3.40
2022-12-06T01:58:41.472Z,3.30
2022-12-06T02:01:44.703Z,3.00
2022-12-06T02:04:48.410Z,3.40
2022-12-06T02:07:53.859Z,3.10
2022-12-06T02:10:56.947Z,3.20
2022-12-06T02:14:00.462Z,3.30
2022-12-06T02:17:20.054Z,3.30
2022-12-06T02:20:29.329Z,3.30
2022-12-06T02:23:59.214Z,3.30
2022-12-06T02:27:22.823Z,3.30
2022-12-06T02:30:48.129Z,3.20
2022-12-06T02:33:54.115Z,3.00
2022-12-06T02:37:01.968Z,3.40
2022-12-06T02:40:09.182Z,3.00
2022-12-06T02:43:17.118Z,3.20
2022-12-06T02:46:23.964Z,3.20
2022-12-06T02:49:29.515Z,3.40
2022-12-06T02:52:33.525Z,2.90
2022-12-06T02:55:37.756Z,3.20
2022-12-06T02:58:40.820Z,3.30
2022-12-06T03:01:47.724Z,3.00
2022-12-06T03:05:03.485Z,2.90
2022-12-06T03:08:14.943Z,3.20
2022-12-06T03:11:19.135Z,2.80
2022-12-06T03:14:24.793Z,2.90
2022-12-06T03:17:37.014Z,2.80
2022-12-06T03:20:45.570Z,3.00
2022-12-06T03:23:51.346Z,2.90
2022-12-06T03:26:56.918Z,2.80
2022-12-06T03:30:03.940Z,2.80
2022-12-06T03:33:08.537Z,3.20
2022-12-06T03:36:13.874Z,2.90
2022-12-06T03:39:25.170Z,3.00
2022-12-06T03:42:28.707Z,2.80
2022-12-06T03:45:37.429Z,2.80
2022-12-06T03:48:45.681Z,2.80
2022-12-06T03:51:49.325Z,3.00
2022-12-06T03:54:52.566Z,2.70
2022-12-06T03:57:55.550Z,2.80
2022-12-06T04:01:04.948Z,2.60
2022-12-06T04:04:10.510Z,2.70
2022-12-06T04:07:13.619Z,2.70
2022-12-06T04:10:16.575Z,2.90
2022-12-06T04:13:20.018Z,2.60
2022-12-06T04:16:40.328Z,2.70
2022-12-06T04:19:49.388Z,2.60
2022-12-06T04:23:06.280Z,2.70
2022-12-06T04:26:11.256Z,3.00
2022-12-06T04:29:31.347Z,2.70
2022-12-06T04:32:51.788Z,2.70
2022-12-06T04:36:16.860Z,3.00
2022-12-06T04:39:21.044Z,2.90
2022-12-06T04:42:41.651Z,2.90
2022-12-06T04:45:44.495Z,2.90
2022-12-06T04:48:47.429Z,2.90
2022-12-06T04:51:52.158Z,2.80
2022-12-06T04:54:55.176Z,2.90
2022-12-06T04:57:58.116Z,2.80
2022-12-06T05:01:01.044Z,2.70
2022-12-06T05:04:04.278Z,3.00
2022-12-06T05:07:09.687Z,2.80
2022-12-06T05:10:13.181Z,2.70
2022-12-06T05:13:16.347Z,2.80
2022-12-06T05:16:19.389Z,3.10
2022-12-06T05:19:22.330Z,2.90
2022-12-06T05:22:26.603Z,2.70
2022-12-06T05:25:29.567Z,2.90
2022-12-06T05:28:33.658Z,3.20
2022-12-06T05:31:36.657Z,2.80
2022-12-06T05:34:39.596Z,2.90
2022-12-06T05:37:43.953Z,3.20
2022-12-06T05:40:47.478Z,2.90
2022-12-06T05:43:50.390Z,3.10
2022-12-06T05:46:53.321Z,3.00
2022-12-06T05:49:56.254Z,2.80
2022-12-06T05:53:01.752Z,2.70
2022-12-06T05:56:06.556Z,3.10
2022-12-06T05:59:09.520Z,2.60
2022-12-06T06:02:12.531Z,2.80
2022-12-06T06:05:15.795Z,2.60
2022-12-06T06:08:20.169Z,2.90
2022-12-06T06:11:23.216Z,2.60
2022-12-06T06:14:26.332Z,2.60
2022-12-06T06:17:29.201Z,2.80
2022-12-06T06:20:32.299Z,2.90
2022-12-06T06:23:36.671Z,2.60
2022-12-06T06:26:39.612Z,2.90
2022-12-06T06:29:45.560Z,2.70
2022-12-06T06:32:48.834Z,2.80
2022-12-06T06:35:51.817Z,2.80
2022-12-06T06:38:56.094Z,2.90
2022-12-06T06:41:59.014Z,2.60
2022-12-06T06:45:03.894Z,2.60
2022-12-06T06:48:07.353Z,2.50
2022-12-06T06:51:12.371Z,2.60
2022-12-06T06:54:16.745Z,2.70
2022-12-06T06:57:19.859Z,2.70
2022-12-06T07:00:22.872Z,2.70
2022-12-06T07:03:27.052Z,2.70
2022-12-06T07:06:29.970Z,2.90
2022-12-06T07:09:34.581Z,2.80
2022-12-06T07:12:37.512Z,2.60
2022-12-06T07:15:40.481Z,2.60
2022-12-06T07:18:43.783Z,2.80
2022-12-06T07:21:46.687Z,2.50
2022-12-06T07:24:52.628Z,2.60
2022-12-06T07:27:55.679Z,2.80
2022-12-06T07:30:58.701Z,3.00
2022-12-06T07:34:03.669Z,2.70
2022-12-06T07:37:07.216Z,2.90
2022-12-06T07:40:13.340Z,2.60
2022-12-06T07:43:33.846Z,2.60
2022-12-06T07:46:36.981Z,2.60
2022-12-06T07:49:39.962Z,3.10
2022-12-06T07:52:43.354Z,2.70
2022-12-06T07:55:48.190Z,2.80
2022-12-06T07:58:51.167Z,2.60
2022-12-06T08:01:54.845Z,2.70
2022-12-06T08:04:58.456Z,3.00
2022-12-06T08:08:01.468Z,2.90
2022-12-06T08:11:07.757Z,2.90
2022-12-06T08:14:12.007Z,3.20
2022-12-06T08:17:15.574Z,2.80
2022-12-06T08:20:18.672Z,3.00
2022-12-06T08:23:21.553Z,2.90
2022-12-06T08:26:25.876Z,3.00
2022-12-06T08:29:28.760Z,2.90
2022-12-06T08:32:31.651Z,2.90
2022-12-06T08:35:38.199Z,3.00
2022-12-06T08:38:41.721Z,3.10
2022-12-06T08:41:59.105Z,3.10
2022-12-06T08:45:01.992Z,3.20
2022-12-06T08:48:05.276Z,3.20
2022-12-06T08:51:08.308Z,3.10
2022-12-06T08:54:14.611Z,3.20
2022-12-06T08:57:18.902Z,3.10
2022-12-06T09:00:22.104Z,3.20
2022-12-06T09:03:24.991Z,3.30
2022-12-06T09:06:29.015Z,3.20
2022-12-06T09:09:31.932Z,3.20
2022-12-06T09:12:36.202Z,3.30
2022-12-06T09:15:39.279Z,3.10
2022-12-06T09:18:42.281Z,3.30
2022-12-06T09:21:46.423Z,3.40
2022-12-06T09:24:49.394Z,3.50
2022-12-06T09:27:54.577Z,3.40
2022-12-06T09:30:58.511Z,3.50
2022-12-06T09:34:01.425Z,3.20
2022-12-06T09:37:09.143Z,3.30
2022-12-06T09:40:20.134Z,3.30
2022-12-06T09:43:38.429Z,3.30
2022-12-06T09:46:56.645Z,3.10
2022-12-06T09:50:10.154Z,3.20
2022-12-06T09:53:22.795Z,3.30
2022-12-06T09:56:31.412Z,3.40
2022-12-06T09:59:47.540Z,3.20
2022-12-06T10:03:26.458Z,3.40
2022-12-06T10:06:37.686Z,3.40
2022-12-06T10:09:51.936Z,3.30
2022-12-06T10:13:04.075Z,3.30
2022-12-06T10:16:17.553Z,3.20
2022-12-06T10:19:31.481Z,3.10
2022-12-06T10:22:46.169Z,3.30
2022-12-06T10:26:03.286Z,3.20
2022-12-06T10:29:17.931Z,3.60
2022-12-06T10:32:35.093Z,3.50
2022-12-06T10:35:43.327Z,3.40
2022-12-06T10:38:50.313Z,3.40
2022-12-06T10:42:02.133Z,3.30
2022-12-06T10:45:30.256Z,3.70
2022-12-06T10:48:41.763Z,3.60
2022-12-06T10:51:48.270Z,3.30
2022-12-06T10:54:59.800Z,3.60
2022-12-06T10:58:12.404Z,3.60
2022-12-06T11:01:21.094Z,3.50
2022-12-06T11:04:30.257Z,3.60
2022-12-06T11:07:38.699Z,3.60
2022-12-06T11:10:44.651Z,3.70
2022-12-06T11:13:50.820Z,3.70
2022-12-06T11:16:57.070Z,3.50
2022-12-06T11:20:11.313Z,3.50
2022-12-06T11:23:21.790Z,3.50
2022-12-06T11:26:33.131Z,3.50
2022-12-06T11:29:37.230Z,3.60
2022-12-06T11:32:41.010Z,3.60
2022-12-06T11:35:47.624Z,3.70
2022-12-06T11:38:50.495Z,3.50
2022-12-06T11:41:57.120Z,3.60
2022-12-06T11:45:05.700Z,3.60
2022-12-06T11:48:16.268Z,3.60
2022-12-06T11:51:22.713Z,3.70
2022-12-06T11:54:30.763Z,3.70
2022-12-06T11:57:39.625Z,3.60
2022-12-06T12:00:58.403Z,3.80
2022-12-06T12:04:21.420Z,3.80
2022-12-06T12:07:26.786Z,3.80
2022-12-06T12:10:35.394Z,3.80
2022-12-06T12:13:47.439Z,3.90
2022-12-06T12:16:53.511Z,3.70
2022-12-06T12:20:01.774Z,3.50
2022-12-06T12:23:08.538Z,3.60
2022-12-06T12:26:14.899Z,3.60
2022-12-06T12:29:20.535Z,3.40
2022-12-06T12:32:23.418Z,3.20
2022-12-06T12:35:28.352Z,3.70
2022-12-06T12:38:39.131Z,3.70
2022-12-06T12:41:44.931Z,3.50
2022-12-06T12:44:48.209Z,3.40
2022-12-06T12:47:59.285Z,3.60
2022-12-06T12:51:05.375Z,3.60
2022-12-06T12:54:24.328Z,3.50
2022-12-06T12:57:27.492Z,3.30
2022-12-06T13:00:35.876Z,3.40
2022-12-06T13:03:54.623Z,3.30
2022-12-06T13:07:02.010Z,3.40
2022-12-06T13:10:08.536Z,3.50
2022-12-06T13:13:17.830Z,3.40
2022-12-06T13:16:24.936Z,3.20
2022-12-06T13:19:35.103Z,3.30
2022-12-06T13:22:45.056Z,3.40
2022-12-06T13:25:54.352Z,3.00
2022-12-06T13:29:00.806Z,3.10
2022-12-06T13:32:09.733Z,3.20
2022-12-06T13:35:24.161Z,3.00
2022-12-06T13:38:31.588Z,3.10
2022-12-06T13:42:12.544Z,3.40
2022-12-06T13:45:42.443Z,3.20
2022-12-06T13:48:53.179Z,3.30
2022-12-06T13:51:56.076Z,3.30
2022-12-06T13:54:59.009Z,3.40
2022-12-06T13:58:35.463Z,3.40
2022-12-06T14:01:42.723Z,3.10
2022-12-06T14:04:45.743Z,3.20
2022-12-06T14:07:48.679Z,3.20
2022-12-06T14:10:51.693Z,3.60
2022-12-06T14:14:03.725Z,3.10
2022-12-06T14:17:32.151Z,3.20
2022-12-06T14:20:37.936Z,3.50
2022-12-06T14:23:47.781Z,3.50
2022-12-06T14:26:50.731Z,3.40
2022-12-06T14:30:03.324Z,3.50
2022-12-06T14:33:19.212Z,3.30
2022-12-06T14:36:26.395Z,3.10
2022-12-06T14:39:31.668Z,3.10
2022-12-06T14:42:52.012Z,3.30
2022-12-06T14:45:55.936Z,3.10
2022-12-06T14:49:17.664Z,3.30
2022-12-06T14:52:26.733Z,3.30
2022-12-06T14:55:31.755Z,3.00
2022-12-06T14:58:37.047Z,3.00
2022-12-06T15:01:48.619Z,3.00
2022-12-06T15:04:53.399Z,3.00
2022-12-06T15:07:56.455Z,2.90
2022-12-06T15:11:01.221Z,3.10
2022-12-06T15:14:16.108Z,3.00
2022-12-06T15:17:22.643Z,3.40
2022-12-06T15:20:26.948Z,3.00
2022-12-06T15:23:38.247Z,3.10
2022-12-06T15:26:41.212Z,3.30
2022-12-06T15:29:44.140Z,3.30
2022-12-06T15:32:47.079Z,3.00
2022-12-06T15:35:52.103Z,2.90
2022-12-06T15:38:55.156Z,3.00
2022-12-06T15:41:58.564Z,3.30
2022-12-06T15:45:01.595Z,3.00
2022-12-06T15:48:04.982Z,3.20
2022-12-06T15:51:18.986Z,3.00
2022-12-06T15:54:26.474Z,3.10
2022-12-06T15:57:29.350Z,3.30
2022-12-06T16:00:32.444Z,3.30
2022-12-06T16:03:35.486Z,2.90
2022-12-06T16:06:39.780Z,3.30
2022-12-06T16:09:42.744Z,2.90
2022-12-06T16:13:03.044Z,2.90
2022-12-06T16:16:06.738Z,3.20
2022-12-06T16:19:09.761Z,3.10
2022-12-06T16:22:14.166Z,3.20
2022-12-06T16:25:17.032Z,3.10
2022-12-06T16:28:19.948Z,3.00
2022-12-06T16:31:22.916Z,3.10
2022-12-06T16:34:27.619Z,3.30
2022-12-06T16:37:31.865Z,3.00
2022-12-06T16:40:34.930Z,3.10
2022-12-06T16:43:38.004Z,3.30
2022-12-06T16:46:41.889Z,3.50
2022-12-06T16:49:46.845Z,3.00
2022-12-06T16:52:52.064Z,3.10
2022-12-06T16:55:54.996Z,3.10
2022-12-06T16:58:58.051Z,3.30
2022-12-06T17:02:01.655Z,3.50
2022-12-06T17:05:06.526Z,3.20
2022-12-06T17:08:11.286Z,3.10
2022-12-06T17:11:35.141Z,3.50
2022-12-06T17:14:38.964Z,3.30
2022-12-06T17:17:42.283Z,3.30
2022-12-06T17:20:45.211Z,3.30
2022-12-06T17:23:49.497Z,3.40
2022-12-06T17:26:53.918Z,3.30
2022-12-06T17:29:56.903Z,3.60
2022-12-06T17:32:59.782Z,3.10
2022-12-06T17:36:06.301Z,3.20
2022-12-06T17:39:11.756Z,3.40
2022-12-06T17:42:32.103Z,3.50
2022-12-06T17:45:35.263Z,3.50
2022-12-06T17:48:44.256Z,3.60
2022-12-06T17:51:47.632Z,3.70
2022-12-06T17:54:51.877Z,3.50
2022-12-06T17:57:54.790Z,3.60
2022-12-06T18:00:59.884Z,3.30
2022-12-06T18:04:04.671Z,3.50
2022-12-06T18:07:07.650Z,3.50
2022-12-06T18:10:12.654Z,3.60
2022-12-06T18:13:15.569Z,3.60
2022-12-06T18:16:20.772Z,3.80
2022-12-06T18:19:23.839Z,3.70
2022-12-06T18:22:26.793Z,3.50
2022-12-06T18:25:31.115Z,3.50
2022-12-06T18:28:34.141Z,3.70
2022-12-06T18:31:37.455Z,3.70
2022-12-06T18:34:40.421Z,3.90
2022-12-06T18:37:43.298Z,3.80
2022-12-06T18:40:47.701Z,4.00
2022-12-06T18:43:50.702Z,3.80
2022-12-06T18:46:53.753Z,3.80
2022-12-06T18:49:57.483Z,3.80
2022-12-06T18:53:01.472Z,3.90
2022-12-06T18:56:08.538Z,3.70
2022-12-06T18:59:12.834Z,3.60
2022-12-06T19:02:15.978Z,3.90
2022-12-06T19:05:33.060Z,3.70
2022-12-06T19:08:43.432Z,3.80
2022-12-06T19:11:47.977Z,3.90
2022-12-06T19:14:51.148Z,3.90
2022-12-06T19:17:54.443Z,3.90
2022-12-06T19:21:00.824Z,4.00
2022-12-06T19:24:04.180Z,3.90
2022-12-06T19:27:08.569Z,3.80
2022-12-06T19:30:12.755Z,4.00
2022-12-06T19:33:15.698Z,3.80
2022-12-06T19:36:20.555Z,3.90
2022-12-06T19:39:25.523Z,4.00
2022-12-06T19:42:58.559Z,3.90
2022-12-06T19:46:09.686Z,3.80
2022-12-06T19:49:14.283Z,3.90
2022-12-06T19:52:17.605Z,3.90
2022-12-06T19:55:20.548Z,3.90
2022-12-06T19:58:24.942Z,4.10
2022-12-06T20:01:29.964Z,4.20
2022-12-06T20:04:34.549Z,3.90
2022-12-06T20:07:37.547Z,4.00
2022-12-06T20:10:41.513Z,3.80
2022-12-06T20:13:45.771Z,4.10
2022-12-06T20:16:49.427Z,4.00
2022-12-06T20:19:52.405Z,4.10
2022-12-06T20:22:55.398Z,4.20
2022-12-06T20:25:58.630Z,4.10
2022-12-06T20:29:03.024Z,4.00
2022-12-06T20:32:06.325Z,4.10
2022-12-06T20:35:09.917Z,4.20
2022-12-06T20:38:12.849Z,4.00
2022-12-06T20:41:17.849Z,4.30
2022-12-06T20:44:22.956Z,4.10
2022-12-06T20:47:26.080Z,4.20
2022-12-06T20:50:29.019Z,4.00
2022-12-06T20:53:32.773Z,4.20
2022-12-06T20:56:39.024Z,3.90
2022-12-06T20:59:43.412Z,4.00
2022-12-06T21:02:46.372Z,4.10
2022-12-06T21:05:55.111Z,4.10
2022-12-06T21:08:58.585Z,4.20
2022-12-06T21:12:01.495Z,4.00
2022-12-06T21:15:06.628Z,3.90
2022-12-06T21:18:09.747Z,4.20
2022-12-06T21:21:21.408Z,4.00
2022-12-06T21:24:24.353Z,4.20
2022-12-06T21:27:29.143Z,4.10
2022-12-06T21:30:33.486Z,4.20
2022-12-06T21:33:36.470Z,4.20
2022-12-06T21:36:39.596Z,4.30
2022-12-06T21:39:46.219Z,4.00
2022-12-06T21:42:49.118Z,4.10
2022-12-06T21:45:53.443Z,4.30
2022-12-06T21:48:57.920Z,4.40
2022-12-06T21:52:06.061Z,4.30
2022-12-06T21:55:12.069Z,4.00
2022-12-06T21:58:15.013Z,3.80
2022-12-06T22:01:21.856Z,4.20
2022-12-06T22:04:24.875Z,4.00
2022-12-06T22:07:27.955Z,4.10
2022-12-06T22:10:30.952Z,4.00
2022-12-06T22:13:33.856Z,4.20
2022-12-06T22:16:38.235Z,4.10
2022-12-06T22:19:41.239Z,4.10
2022-12-06T22:22:44.161Z,4.20
2022-12-06T22:25:47.029Z,4.10
2022-12-06T22:28:50.445Z,3.90
2022-12-06T22:31:54.781Z,3.90
2022-12-06T22:34:57.791Z,3.90
2022-12-06T22:38:02.203Z,3.80
2022-12-06T22:41:06.420Z,3.90
2022-12-06T22:44:09.386Z,3.70
2022-12-06T22:47:14.084Z,3.70
2022-12-06T22:50:17.244Z,4.10
2022-12-06T22:53:20.184Z,3.80
2022-12-06T22:56:23.300Z,4.00
2022-12-06T22:59:26.203Z,4.00
2022-12-06T23:02:30.492Z,4.00
2022-12-06T23:05:33.440Z,4.10
2022-12-06T23:08:36.894Z,3.90
2022-12-06T23:11:39.795Z,3.80
2022-12-06T23:14:42.851Z,3.70
2022-12-06T23:17:47.071Z,3.90
2022-12-06T23:20:49.983Z,3.80
2022-12-06T23:23:54.817Z,3.80
2022-12-06T23:26:58.302Z,3.90
2022-12-06T23:30:01.714Z,3.70
2022-12-06T23:33:06.202Z,3.80
2022-12-06T23:36:11.745Z,3.70
2022-12-06T23:39:14.744Z,3.30
2022-12-06T23:42:17.663Z,3.20
2022-12-06T23:45:20.510Z,3.30
2022-12-06T23:48:24.961Z,3.40
2022-12-06T23:51:30.697Z,3.20
2022-12-06T23:54:33.634Z,3.40
2022-12-06T23:57:36.523Z,3.30
